sensor_id;sensor_type;location;lat;lon;timestamp;P1;durP1;ratioP1;P2;durP2;ratioP2
24559;SDS011;12727;49.934;8.656;2022-07-18T00:01:51;3.28;;;0.63;;
24559;SDS011;12727;49.934;8.656;2022-07-18T00:04:16;2.15;;;0.90;;
24559;SDS011;12727;49.934;8.656;2022-07-18T00:06:42;4.22;;;0.60;;
24559;SDS011;12727;49.934;8.656;2022-07-18T00:09:08;1.25;;;0.73;;
24559;SDS011;12727;49.934;8.656;2022-07-18T00:11:33;2.45;;;0.68;;
24559;SDS011;12727;49.934;8.656;2022-07-18T00:13:59;2.15;;;0.70;;
24559;SDS011;12727;49.934;8.656;2022-07-18T00:16:24;2.17;;;0.70;;
24559;SDS011;12727;49.934;8.656;2022-07-18T00:18:50;2.15;;;0.70;;
24559;SDS011;12727;49.934;8.656;2022-07-18T00:21:16;1.83;;;0.50;;
24559;SDS011;12727;49.934;8.656;2022-07-18T00:23:42;2.28;;;0.80;;
24559;SDS011;12727;49.934;8.656;2022-07-18T00:26:08;1.70;;;0.57;;
24559;SDS011;12727;49.934;8.656;2022-07-18T00:28:33;3.30;;;0.90;;
24559;SDS011;12727;49.934;8.656;2022-07-18T00:30:59;3.10;;;0.80;;
24559;SDS011;12727;49.934;8.656;2022-07-18T00:33:24;4.82;;;0.88;;
24559;SDS011;12727;49.934;8.656;2022-07-18T00:35:50;2.17;;;0.80;;
24559;SDS011;12727;49.934;8.656;2022-07-18T00:38:15;1.90;;;0.63;;
24559;SDS011;12727;49.934;8.656;2022-07-18T00:40:41;1.52;;;0.60;;
24559;SDS011;12727;49.934;8.656;2022-07-18T00:43:07;3.13;;;0.73;;
24559;SDS011;12727;49.934;8.656;2022-07-18T00:45:33;3.78;;;1.02;;
24559;SDS011;12727;49.934;8.656;2022-07-18T00:47:59;2.30;;;0.90;;
24559;SDS011;12727;49.934;8.656;2022-07-18T00:50:31;3.42;;;0.90;;
24559;SDS011;12727;49.934;8.656;2022-07-18T00:52:56;3.13;;;0.98;;
24559;SDS011;12727;49.934;8.656;2022-07-18T00:55:22;3.22;;;0.95;;
24559;SDS011;12727;49.934;8.656;2022-07-18T00:57:47;2.58;;;0.85;;
24559;SDS011;12727;49.934;8.656;2022-07-18T01:00:13;2.47;;;0.90;;
24559;SDS011;12727;49.934;8.656;2022-07-18T01:02:58;6.18;;;1.30;;
24559;SDS011;12727;49.934;8.656;2022-07-18T01:05:24;2.00;;;0.93;;
24559;SDS011;12727;49.934;8.656;2022-07-18T01:07:50;3.88;;;0.90;;
24559;SDS011;12727;49.934;8.656;2022-07-18T01:10:16;3.38;;;1.17;;
24559;SDS011;12727;49.934;8.656;2022-07-18T01:12:43;3.13;;;1.00;;
24559;SDS011;12727;49.934;8.656;2022-07-18T01:15:09;2.47;;;0.85;;
24559;SDS011;12727;49.934;8.656;2022-07-18T01:17:35;1.92;;;1.08;;
24559;SDS011;12727;49.934;8.656;2022-07-18T01:20:00;2.60;;;0.98;;
24559;SDS011;12727;49.934;8.656;2022-07-18T01:22:26;3.53;;;0.88;;
24559;SDS011;12727;49.934;8.656;2022-07-18T01:24:51;5.57;;;1.20;;
24559;SDS011;12727;49.934;8.656;2022-07-18T01:27:18;7.20;;;0.95;;
24559;SDS011;12727;49.934;8.656;2022-07-18T01:29:46;1.70;;;0.80;;
24559;SDS011;12727;49.934;8.656;2022-07-18T01:32:13;4.30;;;1.33;;
24559;SDS011;12727;49.934;8.656;2022-07-18T01:34:39;2.58;;;1.10;;
24559;SDS011;12727;49.934;8.656;2022-07-18T01:37:06;2.10;;;0.95;;
24559;SDS011;12727;49.934;8.656;2022-07-18T01:39:32;3.22;;;1.30;;
24559;SDS011;12727;49.934;8.656;2022-07-18T01:42:01;4.95;;;1.20;;
24559;SDS011;12727;49.934;8.656;2022-07-18T01:44:28;5.05;;;1.05;;
24559;SDS011;12727;49.934;8.656;2022-07-18T01:46:54;2.65;;;0.90;;
24559;SDS011;12727;49.934;8.656;2022-07-18T01:49:20;4.82;;;1.00;;
24559;SDS011;12727;49.934;8.656;2022-07-18T01:51:47;3.50;;;1.17;;
24559;SDS011;12727;49.934;8.656;2022-07-18T01:54:15;2.92;;;0.82;;
24559;SDS011;12727;49.934;8.656;2022-07-18T01:56:41;1.85;;;1.13;;
24559;SDS011;12727;49.934;8.656;2022-07-18T01:59:06;1.30;;;0.82;;
24559;SDS011;12727;49.934;8.656;2022-07-18T02:01:32;4.00;;;1.38;;
24559;SDS011;12727;49.934;8.656;2022-07-18T02:03:58;1.90;;;1.00;;
24559;SDS011;12727;49.934;8.656;2022-07-18T02:06:23;5.65;;;1.25;;
24559;SDS011;12727;49.934;8.656;2022-07-18T02:08:49;3.30;;;1.20;;
24559;SDS011;12727;49.934;8.656;2022-07-18T02:11:14;3.50;;;1.05;;
24559;SDS011;12727;49.934;8.656;2022-07-18T02:13:40;2.28;;;0.90;;
24559;SDS011;12727;49.934;8.656;2022-07-18T02:16:06;2.58;;;1.10;;
24559;SDS011;12727;49.934;8.656;2022-07-18T02:18:32;2.72;;;1.02;;
24559;SDS011;12727;49.934;8.656;2022-07-18T02:20:58;2.67;;;1.35;;
24559;SDS011;12727;49.934;8.656;2022-07-18T02:23:24;4.32;;;1.23;;
24559;SDS011;12727;49.934;8.656;2022-07-18T02:25:50;4.43;;;1.25;;
24559;SDS011;12727;49.934;8.656;2022-07-18T02:28:16;1.88;;;1.15;;
24559;SDS011;12727;49.934;8.656;2022-07-18T02:30:41;3.28;;;1.20;;
24559;SDS011;12727;49.934;8.656;2022-07-18T02:33:07;1.40;;;0.85;;
24559;SDS011;12727;49.934;8.656;2022-07-18T02:35:33;2.45;;;1.00;;
24559;SDS011;12727;49.934;8.656;2022-07-18T02:37:58;1.90;;;1.15;;
24559;SDS011;12727;49.934;8.656;2022-07-18T02:40:24;3.08;;;1.02;;
24559;SDS011;12727;49.934;8.656;2022-07-18T02:42:50;2.95;;;1.58;;
24559;SDS011;12727;49.934;8.656;2022-07-18T02:45:15;5.00;;;1.13;;
24559;SDS011;12727;49.934;8.656;2022-07-18T02:47:41;3.80;;;1.33;;
24559;SDS011;12727;49.934;8.656;2022-07-18T02:50:06;5.00;;;1.20;;
24559;SDS011;12727;49.934;8.656;2022-07-18T02:52:33;3.47;;;1.13;;
24559;SDS011;12727;49.934;8.656;2022-07-18T02:54:58;3.63;;;1.30;;
24559;SDS011;12727;49.934;8.656;2022-07-18T02:57:25;5.18;;;1.23;;
24559;SDS011;12727;49.934;8.656;2022-07-18T02:59:52;2.63;;;1.23;;
24559;SDS011;12727;49.934;8.656;2022-07-18T03:02:18;5.57;;;1.42;;
24559;SDS011;12727;49.934;8.656;2022-07-18T03:04:43;3.88;;;1.50;;
24559;SDS011;12727;49.934;8.656;2022-07-18T03:07:09;2.92;;;1.42;;
24559;SDS011;12727;49.934;8.656;2022-07-18T03:09:34;2.85;;;1.48;;
24559;SDS011;12727;49.934;8.656;2022-07-18T03:12:00;2.70;;;1.60;;
24559;SDS011;12727;49.934;8.656;2022-07-18T03:14:26;3.08;;;1.40;;
24559;SDS011;12727;49.934;8.656;2022-07-18T03:16:51;5.85;;;1.02;;
24559;SDS011;12727;49.934;8.656;2022-07-18T03:19:17;2.22;;;1.42;;
24559;SDS011;12727;49.934;8.656;2022-07-18T03:21:42;3.10;;;1.45;;
24559;SDS011;12727;49.934;8.656;2022-07-18T03:24:08;4.10;;;1.92;;
24559;SDS011;12727;49.934;8.656;2022-07-18T03:26:35;2.78;;;1.30;;
24559;SDS011;12727;49.934;8.656;2022-07-18T03:29:01;2.72;;;1.40;;
24559;SDS011;12727;49.934;8.656;2022-07-18T03:31:27;5.00;;;1.80;;
24559;SDS011;12727;49.934;8.656;2022-07-18T03:33:52;2.65;;;1.73;;
24559;SDS011;12727;49.934;8.656;2022-07-18T03:36:18;3.78;;;1.73;;
24559;SDS011;12727;49.934;8.656;2022-07-18T03:38:44;4.00;;;2.20;;
24559;SDS011;12727;49.934;8.656;2022-07-18T03:41:09;4.55;;;1.83;;
24559;SDS011;12727;49.934;8.656;2022-07-18T03:43:37;3.83;;;1.63;;
24559;SDS011;12727;49.934;8.656;2022-07-18T03:46:03;6.32;;;1.67;;
24559;SDS011;12727;49.934;8.656;2022-07-18T03:48:28;3.75;;;1.88;;
24559;SDS011;12727;49.934;8.656;2022-07-18T03:50:54;3.25;;;1.60;;
24559;SDS011;12727;49.934;8.656;2022-07-18T03:53:19;2.90;;;1.52;;
24559;SDS011;12727;49.934;8.656;2022-07-18T03:55:45;4.50;;;1.92;;
24559;SDS011;12727;49.934;8.656;2022-07-18T03:58:11;2.78;;;1.70;;
24559;SDS011;12727;49.934;8.656;2022-07-18T04:00:37;3.70;;;1.90;;
24559;SDS011;12727;49.934;8.656;2022-07-18T04:03:02;4.75;;;1.50;;
24559;SDS011;12727;49.934;8.656;2022-07-18T04:05:28;3.63;;;1.70;;
24559;SDS011;12727;49.934;8.656;2022-07-18T04:07:53;3.75;;;1.77;;
24559;SDS011;12727;49.934;8.656;2022-07-18T04:10:19;2.92;;;1.60;;
24559;SDS011;12727;49.934;8.656;2022-07-18T04:12:48;3.38;;;1.55;;
24559;SDS011;12727;49.934;8.656;2022-07-18T04:15:19;5.43;;;1.70;;
24559;SDS011;12727;49.934;8.656;2022-07-18T04:17:46;3.58;;;1.60;;
24559;SDS011;12727;49.934;8.656;2022-07-18T04:20:12;5.55;;;1.65;;
24559;SDS011;12727;49.934;8.656;2022-07-18T04:22:56;2.97;;;1.52;;
24559;SDS011;12727;49.934;8.656;2022-07-18T04:25:23;3.25;;;1.58;;
24559;SDS011;12727;49.934;8.656;2022-07-18T04:27:51;2.75;;;1.40;;
24559;SDS011;12727;49.934;8.656;2022-07-18T04:30:18;4.55;;;1.50;;
24559;SDS011;12727;49.934;8.656;2022-07-18T04:32:46;3.38;;;1.17;;
24559;SDS011;12727;49.934;8.656;2022-07-18T04:35:12;4.97;;;1.67;;
24559;SDS011;12727;49.934;8.656;2022-07-18T04:37:38;4.45;;;1.40;;
24559;SDS011;12727;49.934;8.656;2022-07-18T04:40:05;5.57;;;1.52;;
24559;SDS011;12727;49.934;8.656;2022-07-18T04:42:32;2.05;;;1.52;;
24559;SDS011;12727;49.934;8.656;2022-07-18T04:44:58;3.05;;;1.45;;
24559;SDS011;12727;49.934;8.656;2022-07-18T04:47:27;5.10;;;1.55;;
24559;SDS011;12727;49.934;8.656;2022-07-18T04:49:53;2.42;;;1.20;;
24559;SDS011;12727;49.934;8.656;2022-07-18T04:52:19;5.13;;;1.50;;
24559;SDS011;12727;49.934;8.656;2022-07-18T04:54:45;2.85;;;1.60;;
24559;SDS011;12727;49.934;8.656;2022-07-18T04:57:11;2.88;;;1.30;;
24559;SDS011;12727;49.934;8.656;2022-07-18T04:59:39;4.28;;;1.40;;
24559;SDS011;12727;49.934;8.656;2022-07-18T05:02:08;3.08;;;1.77;;
24559;SDS011;12727;49.934;8.656;2022-07-18T05:04:35;3.92;;;1.63;;
24559;SDS011;12727;49.934;8.656;2022-07-18T05:07:00;5.28;;;1.30;;
24559;SDS011;12727;49.934;8.656;2022-07-18T05:09:26;3.00;;;1.35;;
24559;SDS011;12727;49.934;8.656;2022-07-18T05:11:52;4.10;;;1.35;;
24559;SDS011;12727;49.934;8.656;2022-07-18T05:14:17;4.00;;;1.20;;
24559;SDS011;12727;49.934;8.656;2022-07-18T05:16:43;3.65;;;1.27;;
24559;SDS011;12727;49.934;8.656;2022-07-18T05:19:08;1.95;;;1.38;;
24559;SDS011;12727;49.934;8.656;2022-07-18T05:21:34;1.98;;;1.17;;
24559;SDS011;12727;49.934;8.656;2022-07-18T05:24:00;3.17;;;1.35;;
24559;SDS011;12727;49.934;8.656;2022-07-18T05:26:25;5.28;;;1.45;;
24559;SDS011;12727;49.934;8.656;2022-07-18T05:28:51;3.85;;;1.67;;
24559;SDS011;12727;49.934;8.656;2022-07-18T05:31:16;3.05;;;1.33;;
24559;SDS011;12727;49.934;8.656;2022-07-18T05:33:42;3.53;;;1.27;;
24559;SDS011;12727;49.934;8.656;2022-07-18T05:36:08;5.75;;;1.38;;
24559;SDS011;12727;49.934;8.656;2022-07-18T05:38:34;5.63;;;1.50;;
24559;SDS011;12727;49.934;8.656;2022-07-18T05:41:00;3.42;;;1.45;;
24559;SDS011;12727;49.934;8.656;2022-07-18T05:43:26;5.25;;;1.50;;
24559;SDS011;12727;49.934;8.656;2022-07-18T05:45:51;3.85;;;1.23;;
24559;SDS011;12727;49.934;8.656;2022-07-18T05:48:17;4.55;;;1.17;;
24559;SDS011;12727;49.934;8.656;2022-07-18T05:50:42;4.57;;;1.35;;
24559;SDS011;12727;49.934;8.656;2022-07-18T05:53:09;5.35;;;1.50;;
24559;SDS011;12727;49.934;8.656;2022-07-18T05:55:36;3.40;;;1.40;;
24559;SDS011;12727;49.934;8.656;2022-07-18T05:58:02;3.40;;;1.60;;
24559;SDS011;12727;49.934;8.656;2022-07-18T06:00:27;3.53;;;1.58;;
24559;SDS011;12727;49.934;8.656;2022-07-18T06:02:53;6.03;;;1.20;;
24559;SDS011;12727;49.934;8.656;2022-07-18T06:05:18;4.45;;;1.58;;
24559;SDS011;12727;49.934;8.656;2022-07-18T06:07:44;3.33;;;1.50;;
24559;SDS011;12727;49.934;8.656;2022-07-18T06:10:10;4.28;;;1.70;;
24559;SDS011;12727;49.934;8.656;2022-07-18T06:12:36;3.53;;;1.40;;
24559;SDS011;12727;49.934;8.656;2022-07-18T06:15:01;4.50;;;1.33;;
24559;SDS011;12727;49.934;8.656;2022-07-18T06:17:27;3.72;;;1.30;;
24559;SDS011;12727;49.934;8.656;2022-07-18T06:19:54;2.05;;;1.23;;
24559;SDS011;12727;49.934;8.656;2022-07-18T06:22:20;2.88;;;1.30;;
24559;SDS011;12727;49.934;8.656;2022-07-18T06:24:47;2.40;;;1.30;;
24559;SDS011;12727;49.934;8.656;2022-07-18T06:27:12;3.88;;;1.17;;
24559;SDS011;12727;49.934;8.656;2022-07-18T06:29:38;3.55;;;1.20;;
24559;SDS011;12727;49.934;8.656;2022-07-18T06:32:04;3.22;;;1.30;;
24559;SDS011;12727;49.934;8.656;2022-07-18T06:34:29;2.63;;;1.05;;
24559;SDS011;12727;49.934;8.656;2022-07-18T06:36:55;5.57;;;1.20;;
24559;SDS011;12727;49.934;8.656;2022-07-18T06:39:21;2.20;;;1.08;;
24559;SDS011;12727;49.934;8.656;2022-07-18T06:41:46;1.73;;;1.00;;
24559;SDS011;12727;49.934;8.656;2022-07-18T06:44:12;2.97;;;1.17;;
24559;SDS011;12727;49.934;8.656;2022-07-18T06:46:38;2.70;;;1.10;;
24559;SDS011;12727;49.934;8.656;2022-07-18T06:49:04;2.08;;;0.98;;
24559;SDS011;12727;49.934;8.656;2022-07-18T06:51:30;2.13;;;1.17;;
24559;SDS011;12727;49.934;8.656;2022-07-18T06:53:56;2.63;;;1.00;;
24559;SDS011;12727;49.934;8.656;2022-07-18T06:56:22;4.53;;;1.02;;
24559;SDS011;12727;49.934;8.656;2022-07-18T06:58:48;2.15;;;0.98;;
24559;SDS011;12727;49.934;8.656;2022-07-18T07:01:14;2.72;;;1.08;;
24559;SDS011;12727;49.934;8.656;2022-07-18T07:03:41;2.17;;;1.10;;
24559;SDS011;12727;49.934;8.656;2022-07-18T07:06:06;4.07;;;0.93;;
24559;SDS011;12727;49.934;8.656;2022-07-18T07:08:32;5.40;;;1.17;;
24559;SDS011;12727;49.934;8.656;2022-07-18T07:10:58;4.40;;;1.27;;
24559;SDS011;12727;49.934;8.656;2022-07-18T07:13:24;3.80;;;1.33;;
24559;SDS011;12727;49.934;8.656;2022-07-18T07:15:50;2.97;;;1.15;;
24559;SDS011;12727;49.934;8.656;2022-07-18T07:18:16;5.30;;;1.20;;
24559;SDS011;12727;49.934;8.656;2022-07-18T07:20:41;2.22;;;1.20;;
24559;SDS011;12727;49.934;8.656;2022-07-18T07:23:07;5.47;;;1.40;;
24559;SDS011;12727;49.934;8.656;2022-07-18T07:25:33;3.78;;;1.13;;
24559;SDS011;12727;49.934;8.656;2022-07-18T07:28:00;3.28;;;1.10;;
24559;SDS011;12727;49.934;8.656;2022-07-18T07:30:26;4.40;;;1.40;;
24559;SDS011;12727;49.934;8.656;2022-07-18T07:32:52;2.90;;;1.30;;
24559;SDS011;12727;49.934;8.656;2022-07-18T07:35:18;3.15;;;1.25;;
24559;SDS011;12727;49.934;8.656;2022-07-18T07:37:47;4.82;;;1.42;;
24559;SDS011;12727;49.934;8.656;2022-07-18T07:40:17;3.78;;;1.50;;
24559;SDS011;12727;49.934;8.656;2022-07-18T07:42:43;4.47;;;1.70;;
24559;SDS011;12727;49.934;8.656;2022-07-18T07:45:10;4.93;;;1.27;;
24559;SDS011;12727;49.934;8.656;2022-07-18T07:47:37;5.75;;;1.42;;
24559;SDS011;12727;49.934;8.656;2022-07-18T07:50:03;5.65;;;1.50;;
24559;SDS011;12727;49.934;8.656;2022-07-18T07:52:30;7.00;;;1.90;;
24559;SDS011;12727;49.934;8.656;2022-07-18T07:54:56;6.82;;;1.88;;
24559;SDS011;12727;49.934;8.656;2022-07-18T07:57:22;4.60;;;1.55;;
24559;SDS011;12727;49.934;8.656;2022-07-18T07:59:48;7.95;;;2.08;;
24559;SDS011;12727;49.934;8.656;2022-07-18T08:02:14;6.88;;;1.05;;
24559;SDS011;12727;49.934;8.656;2022-07-18T08:04:40;7.10;;;1.58;;
24559;SDS011;12727;49.934;8.656;2022-07-18T08:07:06;5.22;;;1.80;;
24559;SDS011;12727;49.934;8.656;2022-07-18T08:09:32;5.25;;;1.83;;
24559;SDS011;12727;49.934;8.656;2022-07-18T08:11:57;4.07;;;1.70;;
24559;SDS011;12727;49.934;8.656;2022-07-18T08:14:23;7.47;;;1.60;;
24559;SDS011;12727;49.934;8.656;2022-07-18T08:16:49;4.43;;;1.58;;
24559;SDS011;12727;49.934;8.656;2022-07-18T08:19:14;7.10;;;1.50;;
24559;SDS011;12727;49.934;8.656;2022-07-18T08:21:40;7.35;;;1.55;;
24559;SDS011;12727;49.934;8.656;2022-07-18T08:24:06;6.63;;;1.20;;
24559;SDS011;12727;49.934;8.656;2022-07-18T08:26:31;4.18;;;1.33;;
24559;SDS011;12727;49.934;8.656;2022-07-18T08:29:00;2.83;;;1.13;;
24559;SDS011;12727;49.934;8.656;2022-07-18T08:31:26;3.25;;;1.33;;
24559;SDS011;12727;49.934;8.656;2022-07-18T08:33:51;3.00;;;1.05;;
24559;SDS011;12727;49.934;8.656;2022-07-18T08:36:17;4.47;;;1.20;;
24559;SDS011;12727;49.934;8.656;2022-07-18T08:38:45;5.20;;;1.20;;
24559;SDS011;12727;49.934;8.656;2022-07-18T08:41:11;4.32;;;1.30;;
24559;SDS011;12727;49.934;8.656;2022-07-18T08:43:36;4.68;;;1.42;;
24559;SDS011;12727;49.934;8.656;2022-07-18T08:46:03;7.78;;;1.30;;
24559;SDS011;12727;49.934;8.656;2022-07-18T08:48:31;4.95;;;1.05;;
24559;SDS011;12727;49.934;8.656;2022-07-18T08:50:58;6.78;;;1.30;;
24559;SDS011;12727;49.934;8.656;2022-07-18T08:53:24;3.03;;;1.25;;
24559;SDS011;12727;49.934;8.656;2022-07-18T08:55:51;4.85;;;1.20;;
24559;SDS011;12727;49.934;8.656;2022-07-18T08:58:16;3.00;;;1.00;;
24559;SDS011;12727;49.934;8.656;2022-07-18T09:00:43;5.70;;;1.00;;
24559;SDS011;12727;49.934;8.656;2022-07-18T09:03:09;5.13;;;1.00;;
24559;SDS011;12727;49.934;8.656;2022-07-18T09:05:35;1.85;;;0.55;;
24559;SDS011;12727;49.934;8.656;2022-07-18T09:08:12;4.82;;;0.70;;
24559;SDS011;12727;49.934;8.656;2022-07-18T09:10:51;2.72;;;0.75;;
24559;SDS011;12727;49.934;8.656;2022-07-18T09:13:18;6.25;;;1.10;;
24559;SDS011;12727;49.934;8.656;2022-07-18T09:15:57;3.15;;;0.73;;
24559;SDS011;12727;49.934;8.656;2022-07-18T09:18:32;1.55;;;0.50;;
24559;SDS011;12727;49.934;8.656;2022-07-18T09:21:06;3.35;;;0.80;;
24559;SDS011;12727;49.934;8.656;2022-07-18T09:23:39;2.55;;;0.70;;
24559;SDS011;12727;49.934;8.656;2022-07-18T09:26:07;5.38;;;0.82;;
24559;SDS011;12727;49.934;8.656;2022-07-18T09:28:51;7.93;;;0.90;;
24559;SDS011;12727;49.934;8.656;2022-07-18T09:31:21;4.95;;;1.10;;
24559;SDS011;12727;49.934;8.656;2022-07-18T09:33:57;2.85;;;0.95;;
24559;SDS011;12727;49.934;8.656;2022-07-18T09:36:24;3.50;;;0.60;;
24559;SDS011;12727;49.934;8.656;2022-07-18T09:38:50;1.25;;;0.70;;
24559;SDS011;12727;49.934;8.656;2022-07-18T09:41:21;2.13;;;0.60;;
24559;SDS011;12727;49.934;8.656;2022-07-18T09:43:51;2.33;;;0.73;;
24559;SDS011;12727;49.934;8.656;2022-07-18T09:46:17;3.60;;;0.60;;
24559;SDS011;12727;49.934;8.656;2022-07-18T09:48:42;3.30;;;0.77;;
24559;SDS011;12727;49.934;8.656;2022-07-18T09:51:08;1.77;;;0.90;;
24559;SDS011;12727;49.934;8.656;2022-07-18T09:56:00;1.98;;;0.65;;
24559;SDS011;12727;49.934;8.656;2022-07-18T09:58:29;1.35;;;0.70;;
24559;SDS011;12727;49.934;8.656;2022-07-18T10:00:56;2.78;;;0.88;;
24559;SDS011;12727;49.934;8.656;2022-07-18T10:03:23;1.95;;;0.57;;
24559;SDS011;12727;49.934;8.656;2022-07-18T10:05:50;1.70;;;0.80;;
24559;SDS011;12727;49.934;8.656;2022-07-18T10:08:21;2.97;;;0.65;;
24559;SDS011;12727;49.934;8.656;2022-07-18T10:10:48;2.30;;;0.60;;
24559;SDS011;12727;49.934;8.656;2022-07-18T10:13:16;2.15;;;0.60;;
24559;SDS011;12727;49.934;8.656;2022-07-18T10:15:43;2.90;;;0.90;;
24559;SDS011;12727;49.934;8.656;2022-07-18T10:18:12;2.85;;;0.80;;
24559;SDS011;12727;49.934;8.656;2022-07-18T10:20:44;1.08;;;0.70;;
24559;SDS011;12727;49.934;8.656;2022-07-18T10:34:08;2.53;;;0.80;;
24559;SDS011;12727;49.934;8.656;2022-07-18T10:39:35;1.30;;;0.60;;
24559;SDS011;12727;49.934;8.656;2022-07-18T10:44:36;1.08;;;0.50;;
24559;SDS011;12727;49.934;8.656;2022-07-18T11:16:02;1.88;;;0.70;;
24559;SDS011;12727;49.934;8.656;2022-07-18T11:21:18;1.60;;;0.73;;
24559;SDS011;12727;49.934;8.656;2022-07-18T11:26:34;4.25;;;0.77;;
24559;SDS011;12727;49.934;8.656;2022-07-18T11:29:08;2.15;;;0.90;;
24559;SDS011;12727;49.934;8.656;2022-07-18T11:31:48;1.85;;;0.80;;
24559;SDS011;12727;49.934;8.656;2022-07-18T11:34:22;4.55;;;1.00;;
24559;SDS011;12727;49.934;8.656;2022-07-18T11:36:49;2.20;;;0.90;;
24559;SDS011;12727;49.934;8.656;2022-07-18T11:39:15;1.75;;;1.08;;
24559;SDS011;12727;49.934;8.656;2022-07-18T11:41:53;3.80;;;0.80;;
24559;SDS011;12727;49.934;8.656;2022-07-18T11:44:19;2.38;;;1.00;;
24559;SDS011;12727;49.934;8.656;2022-07-18T11:47:00;2.65;;;0.80;;
24559;SDS011;12727;49.934;8.656;2022-07-18T11:49:29;2.22;;;0.70;;
24559;SDS011;12727;49.934;8.656;2022-07-18T11:51:55;1.88;;;0.70;;
24559;SDS011;12727;49.934;8.656;2022-07-18T11:54:24;4.50;;;0.95;;
24559;SDS011;12727;49.934;8.656;2022-07-18T11:56:51;2.20;;;1.00;;
24559;SDS011;12727;49.934;8.656;2022-07-18T11:59:18;2.38;;;1.00;;
24559;SDS011;12727;49.934;8.656;2022-07-18T12:01:44;4.82;;;1.10;;
24559;SDS011;12727;49.934;8.656;2022-07-18T12:04:17;3.38;;;1.10;;
24559;SDS011;12727;49.934;8.656;2022-07-18T12:06:44;2.70;;;0.90;;
24559;SDS011;12727;49.934;8.656;2022-07-18T12:09:11;1.75;;;0.90;;
24559;SDS011;12727;49.934;8.656;2022-07-18T12:11:37;2.40;;;0.90;;
24559;SDS011;12727;49.934;8.656;2022-07-18T12:14:13;3.40;;;0.93;;
24559;SDS011;12727;49.934;8.656;2022-07-18T12:26:56;1.90;;;0.90;;
24559;SDS011;12727;49.934;8.656;2022-07-18T12:32:24;3.30;;;1.13;;
24559;SDS011;12727;49.934;8.656;2022-07-18T12:35:01;3.45;;;1.15;;
24559;SDS011;12727;49.934;8.656;2022-07-18T12:37:31;3.00;;;0.70;;
24559;SDS011;12727;49.934;8.656;2022-07-18T12:39:58;1.98;;;1.13;;
24559;SDS011;12727;49.934;8.656;2022-07-18T12:42:29;2.97;;;0.90;;
24559;SDS011;12727;49.934;8.656;2022-07-18T12:44:56;3.97;;;1.08;;
24559;SDS011;12727;49.934;8.656;2022-07-18T12:47:21;4.00;;;0.80;;
24559;SDS011;12727;49.934;8.656;2022-07-18T12:49:47;2.33;;;1.10;;
24559;SDS011;12727;49.934;8.656;2022-07-18T12:52:12;4.85;;;0.90;;
24559;SDS011;12727;49.934;8.656;2022-07-18T12:54:38;3.63;;;0.88;;
24559;SDS011;12727;49.934;8.656;2022-07-18T12:57:04;1.42;;;0.73;;
24559;SDS011;12727;49.934;8.656;2022-07-18T12:59:29;2.05;;;0.90;;
24559;SDS011;12727;49.934;8.656;2022-07-18T13:01:55;1.98;;;0.80;;
24559;SDS011;12727;49.934;8.656;2022-07-18T13:04:20;4.15;;;0.90;;
24559;SDS011;12727;49.934;8.656;2022-07-18T13:06:46;2.92;;;0.95;;
24559;SDS011;12727;49.934;8.656;2022-07-18T13:09:11;3.92;;;0.90;;
24559;SDS011;12727;49.934;8.656;2022-07-18T13:11:37;5.13;;;1.08;;
24559;SDS011;12727;49.934;8.656;2022-07-18T13:14:05;4.18;;;1.10;;
24559;SDS011;12727;49.934;8.656;2022-07-18T13:16:31;2.40;;;0.90;;
24559;SDS011;12727;49.934;8.656;2022-07-18T13:18:57;2.17;;;0.98;;
24559;SDS011;12727;49.934;8.656;2022-07-18T13:21:22;3.00;;;1.02;;
24559;SDS011;12727;49.934;8.656;2022-07-18T13:23:48;2.92;;;1.08;;
24559;SDS011;12727;49.934;8.656;2022-07-18T13:26:13;3.40;;;0.98;;
24559;SDS011;12727;49.934;8.656;2022-07-18T13:28:39;3.13;;;0.90;;
24559;SDS011;12727;49.934;8.656;2022-07-18T13:31:05;2.30;;;1.10;;
24559;SDS011;12727;49.934;8.656;2022-07-18T13:33:31;2.80;;;0.98;;
24559;SDS011;12727;49.934;8.656;2022-07-18T13:35:56;1.80;;;0.90;;
24559;SDS011;12727;49.934;8.656;2022-07-18T13:38:22;3.85;;;1.00;;
24559;SDS011;12727;49.934;8.656;2022-07-18T13:40:48;4.38;;;1.33;;
24559;SDS011;12727;49.934;8.656;2022-07-18T13:43:13;4.25;;;1.17;;
24559;SDS011;12727;49.934;8.656;2022-07-18T13:45:39;4.95;;;1.00;;
24559;SDS011;12727;49.934;8.656;2022-07-18T13:48:05;2.65;;;1.10;;
24559;SDS011;12727;49.934;8.656;2022-07-18T13:50:30;3.75;;;0.82;;
24559;SDS011;12727;49.934;8.656;2022-07-18T13:52:56;5.95;;;1.20;;
24559;SDS011;12727;49.934;8.656;2022-07-18T13:55:22;3.00;;;0.98;;
24559;SDS011;12727;49.934;8.656;2022-07-18T13:57:48;3.80;;;1.10;;
24559;SDS011;12727;49.934;8.656;2022-07-18T14:00:13;2.88;;;0.90;;
24559;SDS011;12727;49.934;8.656;2022-07-18T14:02:39;2.55;;;1.10;;
24559;SDS011;12727;49.934;8.656;2022-07-18T14:05:05;2.55;;;1.00;;
24559;SDS011;12727;49.934;8.656;2022-07-18T14:07:31;2.75;;;0.98;;
24559;SDS011;12727;49.934;8.656;2022-07-18T14:09:57;4.40;;;0.88;;
24559;SDS011;12727;49.934;8.656;2022-07-18T14:12:22;3.30;;;0.93;;
24559;SDS011;12727;49.934;8.656;2022-07-18T14:14:48;2.88;;;1.00;;
24559;SDS011;12727;49.934;8.656;2022-07-18T14:17:13;4.22;;;1.23;;
24559;SDS011;12727;49.934;8.656;2022-07-18T14:19:39;2.50;;;1.40;;
24559;SDS011;12727;49.934;8.656;2022-07-18T14:22:04;2.55;;;1.13;;
24559;SDS011;12727;49.934;8.656;2022-07-18T14:24:30;3.55;;;1.27;;
24559;SDS011;12727;49.934;8.656;2022-07-18T14:26:55;5.10;;;0.88;;
24559;SDS011;12727;49.934;8.656;2022-07-18T14:29:21;5.88;;;1.30;;
24559;SDS011;12727;49.934;8.656;2022-07-18T14:31:46;3.60;;;1.17;;
24559;SDS011;12727;49.934;8.656;2022-07-18T14:34:12;2.35;;;0.90;;
24559;SDS011;12727;49.934;8.656;2022-07-18T14:36:38;4.55;;;1.08;;
24559;SDS011;12727;49.934;8.656;2022-07-18T14:39:03;3.05;;;1.10;;
24559;SDS011;12727;49.934;8.656;2022-07-18T14:41:29;3.38;;;1.27;;
24559;SDS011;12727;49.934;8.656;2022-07-18T14:43:55;4.00;;;1.00;;
24559;SDS011;12727;49.934;8.656;2022-07-18T14:46:20;2.70;;;1.08;;
24559;SDS011;12727;49.934;8.656;2022-07-18T14:48:46;3.70;;;0.95;;
24559;SDS011;12727;49.934;8.656;2022-07-18T14:51:13;5.15;;;1.30;;
24559;SDS011;12727;49.934;8.656;2022-07-18T14:53:39;4.10;;;1.20;;
24559;SDS011;12727;49.934;8.656;2022-07-18T14:56:04;2.55;;;1.20;;
24559;SDS011;12727;49.934;8.656;2022-07-18T14:58:30;3.72;;;1.17;;
24559;SDS011;12727;49.934;8.656;2022-07-18T15:00:56;2.03;;;1.02;;
24559;SDS011;12727;49.934;8.656;2022-07-18T15:03:21;5.20;;;1.17;;
24559;SDS011;12727;49.934;8.656;2022-07-18T15:05:47;2.83;;;1.00;;
24559;SDS011;12727;49.934;8.656;2022-07-18T15:08:12;3.65;;;1.38;;
24559;SDS011;12727;49.934;8.656;2022-07-18T15:10:38;2.22;;;1.10;;
24559;SDS011;12727;49.934;8.656;2022-07-18T15:13:03;5.72;;;1.30;;
24559;SDS011;12727;49.934;8.656;2022-07-18T15:15:30;2.58;;;1.00;;
24559;SDS011;12727;49.934;8.656;2022-07-18T15:17:56;8.52;;;1.40;;
24559;SDS011;12727;49.934;8.656;2022-07-18T15:20:22;5.03;;;1.30;;
24559;SDS011;12727;49.934;8.656;2022-07-18T15:22:49;6.18;;;1.15;;
24559;SDS011;12727;49.934;8.656;2022-07-18T15:25:15;3.13;;;1.02;;
24559;SDS011;12727;49.934;8.656;2022-07-18T15:27:41;4.63;;;1.27;;
24559;SDS011;12727;49.934;8.656;2022-07-18T15:30:06;4.15;;;1.30;;
24559;SDS011;12727;49.934;8.656;2022-07-18T15:32:33;2.03;;;1.05;;
24559;SDS011;12727;49.934;8.656;2022-07-18T15:34:59;4.82;;;1.10;;
24559;SDS011;12727;49.934;8.656;2022-07-18T15:37:24;3.08;;;1.10;;
24559;SDS011;12727;49.934;8.656;2022-07-18T15:39:50;4.85;;;1.17;;
24559;SDS011;12727;49.934;8.656;2022-07-18T15:42:16;5.53;;;1.40;;
24559;SDS011;12727;49.934;8.656;2022-07-18T15:44:42;4.25;;;1.13;;
24559;SDS011;12727;49.934;8.656;2022-07-18T15:47:08;2.65;;;1.30;;
24559;SDS011;12727;49.934;8.656;2022-07-18T15:49:34;4.95;;;1.00;;
24559;SDS011;12727;49.934;8.656;2022-07-18T15:52:01;1.90;;;1.00;;